METAR Data
IDs: Format: Raw Decoded Include TAF

Data at: 2104 UTC 08 Aug 2020

KRQE 082053Z AUTO 22006G19KT 10SM CLR 31/00 A3029 RMK AO2 SLP131 T03060000 57015 TSNO
KRQE 081953Z AUTO 10SM FEW110 30/01 A3031 RMK AO2 SLP138 T03000006 TSNO
KRQE 081853Z AUTO 26011KT 10SM SCT100 29/02 A3033 RMK AO2 SLP140 T02890017 TSNO
KRQE 081753Z AUTO 31004KT 10SM FEW090 29/03 A3035 RMK AO2 SLP139 T02940028 10294 20094 58005 TSNO
KRQE 081653Z AUTO 25007G15KT 10SM CLR 28/03 A3036 RMK AO2 SLP140 T02780033 TSNO
KRQE 081553Z AUTO VRB04KT 10SM CLR 27/03 A3036 RMK AO2 SLP141 T02670033 TSNO
KRQE 081453Z AUTO 31003KT 10SM CLR 23/05 A3037 RMK AO2 SLP146 T02280050 51009 TSNO
KRQE 081353Z AUTO 00000KT 10SM CLR 15/05 A3036 RMK AO2 SLP159 T01500050 TSNO
KRQE 081253Z AUTO 00000KT 10SM CLR 10/04 A3035 RMK AO2 SLP164 T01000039 TSNO
KRQE 081153Z AUTO 00000KT 10SM CLR 09/03 A3033 RMK AO2 SLP156 7//// T00940033 10189 20083 53003 TSNO
KRQE 081053Z AUTO 00000KT 10SM CLR 10/03 A3033 RMK AO2 SLP152 T01000028 TSNO
KRQE 080953Z AUTO 00000KT 10SM CLR 10/03 A3032 RMK AO2 SLP152 T01000028 TSNO
KRQE 080853Z AUTO 00000KT 10SM CLR 12/04 A3032 RMK AO2 SLP146 T01220039 50000 TSNO
KRQE 080753Z AUTO 00000KT 10SM CLR 13/04 A3032 RMK AO2 SLP142 T01280039 TSNO
KRQE 080653Z AUTO 00000KT 10SM CLR 15/04 A3033 RMK AO2 SLP136 T01500044 403170150 TSNO
KRQE 080553Z AUTO 00000KT 10SM CLR 18/06 A3032 RMK AO2 SLP129 60000 T01830056 10294 20178 51016 TSNO
KRQE 080453Z AUTO 18004KT 10SM CLR 21/06 A3032 RMK AO2 SLPNO T02060056 TSNO
KRQE 080353Z AUTO 15007KT 10SM CLR 22/04 A3030 RMK AO2 SLPNO T02220044 TSNO
KRQE 080253Z AUTO 18011KT 10SM CLR 24/03 A3026 RMK AO2 SLPNO 60000 T02440028 53010 TSNO
KRQE 080153Z AUTO 20009KT 10SM CLR 26/02 A3025 RMK AO2 SLPNO T02560017 TSNO
KRQE 080053Z AUTO 19008KT 10SM SCT120 28/02 A3023 RMK AO2 RAB06E09 SLPNO P0000 T02780017 TSNO
KRQE 072353Z AUTO 21011KT 10SM FEW110 29/M01 A3023 RMK AO2 SLPNO T02941011 10317 20278 58010 TSNO
KRQE 072253Z AUTO 25007KT 210V290 10SM FEW120 29/M01 A3024 RMK AO2 SLPNO T02941006 TSNO
KRQE 072153Z AUTO 25008KT 10SM OVC110 29/M02 A3026 RMK AO2 SLPNO T02891017 TSNO
KRQE 072053Z AUTO 24007KT 10SM BKN110 29/M02 A3026 RMK AO2 SLPNO T02891017 56007 TSNO
KRQE 071953Z AUTO 22013G18KT 10SM BKN100 30/M02 A3027 RMK AO2 SLPNO T03001022 TSNO
KRQE 071853Z AUTO 25010G18KT 10SM BKN110 30/M03 A3028 RMK AO2 SLPNO T03001028 TSNO
KRQE 071753Z AUTO 22010G19KT 10SM FEW100 29/M02 A3029 RMK AO2 SLPNO 6//// T02941022 PWINO TSNO $